x

Settlement Point, Gbi (spgf1) Weather Station

1:00pm - Sun 1st Mar 2015 All times are EST. -5 hours from GMT.

  • Wind
    15mph
  • Air Temp 74°f
  • Sea Pressure 1026.9mb
  • Settlement Point, Gbi
  • Settlement Point, Gbi

More Historic Weather Station data

Upgrade to MSW Pro to gain access to the past 30 days of data for over 8000 Wavebouys and Weather Stations around the globe.

Join Pro

Comparision Forecast

View Surf forecast
   
Sun 03/01 1:00pm 15
mph
1026.9mb 74f
12:00pm 14 15 mph 1027.6mb 74f
11:00am 10 11 mph 1028mb 74f
10:00am 14
mph
1028mb 74f
9:00am 17 18 mph 1027.7mb 73f
8:00am 18 20 mph 1027.3mb 73f
7:00am 18 21 mph 1026.8mb 72f
6:00am 16 18 mph 1026.5mb 72f
5:00am 21 23 mph 1025.9mb 72f
4:00am 18 22 mph 1025.5mb 72f
3:00am 18 22 mph 1025.4mb 73f
2:00am 24 25 mph 1025.9mb 73f
1:00am 23 26 mph 1026.6mb 72f
12:00am 25 30 mph 1027mb 73f
Sat 02/28 11:00pm 26 30 mph 1027.3mb 73f
10:00pm 25 28 mph 1027.1mb 73f
9:00pm 25 28 mph 1026.8mb 73f
8:00pm 26 29 mph 1026mb 73f
7:00pm 26 29 mph 1025.6mb 72f
6:00pm 25 26 mph 1025.5mb 73f
5:00pm 26 30 mph 1024.8mb 73f
4:00pm 25 28 mph 1024.7mb 73f
3:00pm 25 26 mph 1024.4mb 73f
2:00pm 24 26 mph 1025mb 73f
1:00pm 24 26 mph 1025.5mb 73f
12:00pm 24 26 mph 1026mb 73f
11:00am 21 26 mph 1026.6mb 73f
10:00am 21 23 mph 1026.2mb 73f
9:00am 23 26 mph 1025.6mb 73f
8:00am 20 22 mph 1024.9mb 73f
7:00am 18 21 mph 1024.3mb 73f
6:00am 20 21 mph 1023.6mb 73f
5:00am 21 22 mph 1022.7mb 73f
4:00am 18 21 mph 1022.3mb 73f
3:00am 20 22 mph 1022.1mb 73f
2:00am 21 23 mph 1022.3mb 73f
1:00am 20 22 mph 1022.7mb 72f
12:00am 22 25 mph 1023mb 72f
Fri 02/27 11:00pm 25 28 mph 1023mb 72f
10:00pm 24 26 mph 1022.7mb 71f
9:00pm 26 29 mph 1022.2mb 71f
8:00pm 28 31 mph 1021.6mb 70f
7:00pm 26 31 mph 1021.3mb 70f
6:00pm 25 28 mph 1020.4mb 71f
5:00pm 21 23 mph 1020.2mb 71f
4:00pm 21 22 mph 1019.9mb 71f
3:00pm 18 20 mph 1019.7mb 71f
2:00pm 15 17 mph 1019.6mb 71f
1:00pm 16 18 mph 1020mb 72f
12:00pm 15 17 mph 1020.5mb 72f
11:00am 13 15 mph 1020.6mb 72f
10:00am 13 14 mph 1020.1mb 72f
9:00am 10 11 mph 1019.6mb 73f
8:00am 10
mph
1018.7mb 72f
7:00am 10 11 mph 1018mb 72f
6:00am 10 11 mph 1017.2mb 71f
5:00am 11 13 mph 1016.7mb 71f
4:00am 11 13 mph 1016.2mb 71f
3:00am 11 14 mph 1016.2mb 72f
2:00am 10 11 mph 1016.4mb 72f
1:00am 13
mph
1016.5mb 72f
12:00am 10 11 mph 1016.8mb 73f
Thu 02/26 11:00pm 11 14 mph 1016.7mb 73f
10:00pm 11 13 mph 1016.4mb 74f
9:00pm 10 11 mph 1015.7mb 75f
8:00pm 15 17 mph 1014.9mb 78f
7:00pm 15 16 mph 1014.2mb 78f
6:00pm 20 21 mph 1013.8mb 78f
5:00pm 22 24 mph 1012.9mb 78f
4:00pm 21 23 mph 1012.3mb 78f
3:00pm 25 29 mph 1012mb 78f
2:00pm 29 32 mph 1012.1mb 78f
1:00pm 29 31 mph 1012.3mb 78f
12:00pm 31 36 mph 1012.1mb 78f
11:00am 29 32 mph 1012.8mb 78f
10:00am 30 32 mph 1012.8mb 77f
9:00am 29 33 mph 1012.9mb 77f
8:00am 31 33 mph 1011.9mb 77f
7:00am 30 34 mph 1011.2mb 77f
6:00am 26 31 mph 1011.1mb 77f
5:00am 24 29 mph 1010.7mb 76f
4:00am 31 34 mph 1010.5mb 75f
3:00am 29 36 mph 1010mb 76f
2:00am 33 39 mph 1010.2mb 75f
1:00am 32 37 mph 1010.5mb 75f
12:00am 25 32 mph 1010.5mb 75f
Wed 02/25 11:00pm 23 30 mph 1011mb 75f
10:00pm 23 29 mph 1011.6mb 74f
9:00pm 17 22 mph 1012.1mb 74f
8:00pm 20 23 mph 1012.3mb 75f